KBFW

Silver Bay Municipal Airport

Silver Bay, Minnesota, USA
METAR KBFW 221735Z AUTO 17008KT 10SM CLR 13/M06 A3031 RMK AO2
Observed Flight Rules
Apr-22 @ 17:35 UTC (31 minutes ago) Visual Flight Rules
Wind Visibility Clouds
170° at 8 knots 10 miles
  • Clear skies
Temperatures Readings
Current 13°C / 55°F
Dewpoint -6°C / 21°F
Humidity 26%
Altimeter 30.31" Hg
Pressure 1026 hPa
Elevation 331
METAR KBFW 221735Z AUTO 17008KT 10SM CLR 13/M06 A3031 RMK AO2
Observed Flight Rules
Apr-22 @ 17:35 UTC
(31 minutes ago)
VFR
Wind Visibility
170° at 8 knots 10 miles
Clouds
  • Clear skies
Temperature Dewpoint
13°C / 55°F -6°C / 21°F
Humidity Altimeter Pressure
26% 30.31" Hg 1026 hPa